createdAt,value
2023-04-21T00:02:22.615Z,8.86
2023-04-21T00:07:24.786Z,8.85
2023-04-21T00:12:26.320Z,8.80
2023-04-21T00:17:28.032Z,8.77
2023-04-21T00:22:29.521Z,8.67
2023-04-21T00:27:30.988Z,8.68
2023-04-21T00:32:32.497Z,8.73
2023-04-21T00:37:34.453Z,8.83
2023-04-21T00:42:36.104Z,8.91
2023-04-21T00:47:37.728Z,8.92
2023-04-21T00:52:40.624Z,8.94
2023-04-21T00:57:42.592Z,8.99
2023-04-21T01:02:45.719Z,8.96
2023-04-21T01:07:47.502Z,8.92
2023-04-21T01:12:49.044Z,8.93
2023-04-21T01:17:50.533Z,8.93
2023-04-21T01:22:52.149Z,8.96
2023-04-21T01:27:53.776Z,8.97
2023-04-21T01:32:55.280Z,9.04
2023-04-21T01:37:56.836Z,9.09
2023-04-21T01:42:59.332Z,9.13
2023-04-21T01:48:00.878Z,9.16
2023-04-21T01:53:02.487Z,9.17
2023-04-21T01:58:04.067Z,9.18
2023-04-21T02:03:05.792Z,9.20
2023-04-21T02:08:07.338Z,9.22
2023-04-21T02:13:08.786Z,9.26
2023-04-21T02:18:10.663Z,9.29
2023-04-21T02:23:12.279Z,9.33
2023-04-21T02:28:13.851Z,9.37
2023-04-21T02:33:15.395Z,9.39
2023-04-21T02:38:16.932Z,9.45
2023-04-21T02:43:18.518Z,9.45
2023-04-21T02:48:23.047Z,9.46
2023-04-21T02:53:24.695Z,9.39
2023-04-21T02:58:26.202Z,9.40
2023-04-21T03:03:28.053Z,9.37
2023-04-21T03:08:31.098Z,9.40
2023-04-21T03:13:32.595Z,9.36
2023-04-21T03:18:37.152Z,9.37
2023-04-21T03:23:39.817Z,9.38
2023-04-21T03:28:41.303Z,9.39
2023-04-21T03:33:42.873Z,9.39
2023-04-21T03:38:44.380Z,9.43
2023-04-21T03:43:45.878Z,9.40
2023-04-21T03:48:48.045Z,9.41
2023-04-21T03:53:49.587Z,9.42
2023-04-21T03:58:51.078Z,9.44
2023-04-21T04:03:52.916Z,9.44
2023-04-21T04:08:54.607Z,9.43
2023-04-21T04:13:56.164Z,9.45
2023-04-21T04:18:57.715Z,9.47
2023-04-21T04:23:59.608Z,9.47
2023-04-21T04:29:02.373Z,9.44
2023-04-21T04:34:03.889Z,9.44
2023-04-21T04:39:06.378Z,9.44
2023-04-21T04:44:09.493Z,9.43
2023-04-21T04:49:11.036Z,9.43
2023-04-21T04:54:12.555Z,9.35
2023-04-21T04:59:14.095Z,9.29
2023-04-21T05:04:17.026Z,9.21
2023-04-21T05:09:18.964Z,9.23
2023-04-21T05:14:20.946Z,9.23
2023-04-21T05:19:22.669Z,9.22
2023-04-21T05:24:24.271Z,9.24
2023-04-21T05:29:25.764Z,9.31
2023-04-21T05:34:27.255Z,9.33
2023-04-21T05:39:28.762Z,9.35
2023-04-21T05:44:30.327Z,9.36
2023-04-21T05:49:32.620Z,9.03
2023-04-21T05:54:34.165Z,8.82
2023-04-21T05:59:35.892Z,8.89
2023-04-21T06:04:37.553Z,8.81
2023-04-21T06:09:41.876Z,8.80
2023-04-21T06:14:43.341Z,8.88
2023-04-21T06:19:44.888Z,9.01
2023-04-21T06:24:46.828Z,8.91
2023-04-21T06:29:48.323Z,8.94
2023-04-21T06:34:49.787Z,9.11
2023-04-21T06:39:51.360Z,9.35
2023-04-21T06:44:52.957Z,9.29
2023-04-21T06:49:54.449Z,9.27
2023-04-21T06:54:56.494Z,9.16
2023-04-21T06:59:58.121Z,9.40
2023-04-21T07:04:59.891Z,9.53
2023-04-21T07:10:01.432Z,9.56
2023-04-21T07:15:03.076Z,9.61
2023-04-21T07:20:04.918Z,9.49
2023-04-21T07:25:06.912Z,9.51
2023-04-21T07:30:08.771Z,9.49
2023-04-21T07:35:10.342Z,9.60
2023-04-21T07:40:12.106Z,9.38
2023-04-21T07:45:13.609Z,9.20
2023-04-21T07:50:15.139Z,9.18
2023-04-21T07:55:16.682Z,9.07
2023-04-21T08:00:18.519Z,8.97
2023-04-21T08:05:20.150Z,8.87
2023-04-21T08:10:21.792Z,8.90
2023-04-21T08:15:23.684Z,9.01
2023-04-21T08:20:25.178Z,9.31
2023-04-21T08:25:26.768Z,9.30
2023-04-21T08:30:28.986Z,9.05
2023-04-21T08:35:30.612Z,8.75
2023-04-21T08:40:43.119Z,8.78
2023-04-21T08:45:44.943Z,8.86
2023-04-21T08:50:48.871Z,8.86
2023-04-21T08:56:09.839Z,8.75
2023-04-21T09:01:12.348Z,8.70
2023-04-21T09:06:14.072Z,8.79
2023-04-21T09:11:16.695Z,9.05
2023-04-21T09:16:21.337Z,9.06
2023-04-21T09:26:30.996Z,9.08
2023-04-21T09:31:35.617Z,9.40
2023-04-21T09:36:37.627Z,9.68
2023-04-21T09:41:39.130Z,9.95
2023-04-21T09:46:44.713Z,10.07
2023-04-21T09:56:55.895Z,10.11
2023-04-21T10:01:59.940Z,10.09
2023-04-21T10:07:01.874Z,10.20
2023-04-21T10:12:05.033Z,10.43
2023-04-21T10:17:12.777Z,10.48
2023-04-21T10:22:14.286Z,10.39
2023-04-21T10:27:32.339Z,10.51
2023-04-21T10:32:45.281Z,10.59
2023-04-21T10:37:52.091Z,10.79
2023-04-21T10:42:53.812Z,11.02
2023-04-21T10:47:55.415Z,11.07
2023-04-21T10:53:13.023Z,10.99
2023-04-21T10:58:15.730Z,10.84
2023-04-21T11:03:17.427Z,11.03
2023-04-21T11:08:19.054Z,10.90
2023-04-21T11:13:22.286Z,10.74
2023-04-21T11:18:53.265Z,10.93
2023-04-21T11:23:56.341Z,10.90
2023-04-21T11:29:00.903Z,10.92
2023-04-21T11:34:05.319Z,11.06
2023-04-21T11:39:11.506Z,11.03
2023-04-21T11:44:15.110Z,11.18
2023-04-21T11:49:19.099Z,11.31
2023-04-21T11:54:22.093Z,11.72
2023-04-21T11:59:26.610Z,11.96
2023-04-21T12:04:28.259Z,11.74
2023-04-21T12:09:30.311Z,11.90
2023-04-21T12:14:33.893Z,12.09
2023-04-21T12:19:39.503Z,12.04
2023-04-21T12:24:41.591Z,11.96
2023-04-21T12:29:43.183Z,11.92
2023-04-21T12:34:44.774Z,11.73
2023-04-21T12:39:46.348Z,11.81
2023-04-21T12:44:47.951Z,11.73
2023-04-21T12:49:49.491Z,11.76
2023-04-21T12:54:50.974Z,11.92
2023-04-21T12:59:52.536Z,11.87
2023-04-21T13:04:54.050Z,11.95
2023-04-21T13:09:55.628Z,12.11
2023-04-21T13:14:57.199Z,12.13
2023-04-21T13:19:58.737Z,12.34
2023-04-21T13:25:00.691Z,12.40
2023-04-21T13:30:02.268Z,12.45
2023-04-21T13:35:09.364Z,12.47
2023-04-21T13:40:11.823Z,12.28
2023-04-21T13:45:13.434Z,12.70
2023-04-21T13:50:14.969Z,13.10
2023-04-21T13:55:16.486Z,13.35
2023-04-21T14:00:18.575Z,13.48
2023-04-21T14:05:20.424Z,13.59
2023-04-21T14:10:22.229Z,13.38
2023-04-21T14:15:23.849Z,13.33
2023-04-21T14:20:26.302Z,13.10
2023-04-21T14:25:28.000Z,13.20
2023-04-21T14:30:29.618Z,13.22
2023-04-21T14:35:31.111Z,13.28
2023-04-21T14:40:33.052Z,13.35
2023-04-21T14:45:34.620Z,13.17
2023-04-21T14:50:36.180Z,12.97
2023-04-21T14:55:37.724Z,13.07
2023-04-21T15:00:39.586Z,12.95
2023-04-21T15:05:41.292Z,12.79
2023-04-21T15:10:42.974Z,12.80
2023-04-21T15:15:44.588Z,12.85
2023-04-21T15:20:46.709Z,12.91
2023-04-21T15:25:48.454Z,12.79
2023-04-21T15:30:50.059Z,12.63
2023-04-21T15:35:51.757Z,12.14
2023-04-21T15:46:00.923Z,10.44
2023-04-21T15:51:02.693Z,9.77
2023-04-21T15:56:04.874Z,9.57
2023-04-21T16:01:06.964Z,9.57
2023-04-21T16:06:08.740Z,9.66
2023-04-21T16:11:10.652Z,9.91
2023-04-21T16:16:12.364Z,10.27
2023-04-21T16:21:13.997Z,10.48
2023-04-21T16:26:15.647Z,10.38
2023-04-21T16:31:17.315Z,10.49
2023-04-21T16:36:19.102Z,10.65
2023-04-21T16:41:21.322Z,10.85
2023-04-21T16:46:23.170Z,10.93
2023-04-21T16:51:26.122Z,10.97
2023-04-21T16:56:27.617Z,10.95
2023-04-21T17:01:29.262Z,10.96
2023-04-21T17:06:31.944Z,11.03
2023-04-21T17:11:33.500Z,11.01
2023-04-21T17:16:35.031Z,11.00
2023-04-21T17:21:38.565Z,11.12
2023-04-21T17:26:40.257Z,11.18
2023-04-21T17:31:41.766Z,11.23
2023-04-21T17:36:44.631Z,11.21
2023-04-21T17:41:47.230Z,11.19
2023-04-21T17:46:49.181Z,11.23
2023-04-21T17:51:51.102Z,11.24
2023-04-21T17:56:52.634Z,11.19
2023-04-21T18:01:54.967Z,11.15
2023-04-21T18:06:56.819Z,11.14
2023-04-21T18:11:58.376Z,11.13
2023-04-21T18:17:01.726Z,11.12
2023-04-21T18:22:03.307Z,11.03
2023-04-21T18:27:04.910Z,10.99
2023-04-21T18:32:06.617Z,10.91
2023-04-21T18:37:08.174Z,10.84
2023-04-21T18:42:09.751Z,10.79
2023-04-21T18:47:12.062Z,10.77
2023-04-21T18:52:14.221Z,10.76
2023-04-21T18:57:15.766Z,10.76
2023-04-21T19:02:17.672Z,10.81
2023-04-21T19:07:19.316Z,10.79
2023-04-21T19:12:21.374Z,10.47
2023-04-21T19:17:23.236Z,10.18
2023-04-21T19:22:24.847Z,10.12
2023-04-21T19:27:26.436Z,10.19
2023-04-21T19:32:28.060Z,10.17
2023-04-21T19:37:32.315Z,10.16
2023-04-21T19:42:35.242Z,10.16
2023-04-21T19:47:36.801Z,10.07
2023-04-21T19:52:38.359Z,9.94
2023-04-21T19:57:39.842Z,9.87
2023-04-21T20:02:42.342Z,9.84
2023-04-21T20:07:44.237Z,9.81
2023-04-21T20:12:45.837Z,9.75
2023-04-21T20:17:48.927Z,9.74
2023-04-21T20:22:50.537Z,9.74
2023-04-21T20:27:52.145Z,9.79
2023-04-21T20:32:53.737Z,9.87
2023-04-21T20:37:55.321Z,9.91
2023-04-21T20:42:56.878Z,9.89
2023-04-21T20:47:58.398Z,9.84
2023-04-21T20:53:00.240Z,9.83
2023-04-21T20:58:02.324Z,9.79
2023-04-21T21:03:05.686Z,9.76
2023-04-21T21:08:07.246Z,9.78
2023-04-21T21:13:08.870Z,9.78
2023-04-21T21:18:10.480Z,9.79
2023-04-21T21:23:12.065Z,9.79
2023-04-21T21:28:13.533Z,9.85
2023-04-21T21:33:15.070Z,9.93
2023-04-21T21:38:16.619Z,9.96
2023-04-21T21:43:18.259Z,10.05
2023-04-21T21:48:19.923Z,10.14
2023-04-21T21:53:21.538Z,10.27
2023-04-21T21:58:23.178Z,10.32
2023-04-21T22:03:24.828Z,10.17
2023-04-21T22:08:26.804Z,9.57
2023-04-21T22:13:28.403Z,9.13
2023-04-21T22:18:30.135Z,9.08
2023-04-21T22:23:31.955Z,9.02
2023-04-21T22:28:33.399Z,9.05
2023-04-21T22:33:34.897Z,9.00
2023-04-21T22:38:36.343Z,9.04
2023-04-21T22:43:37.859Z,9.01
2023-04-21T22:48:39.708Z,9.02
2023-04-21T22:53:41.232Z,8.93
2023-04-21T22:58:43.244Z,8.87
2023-04-21T23:03:44.845Z,8.89
2023-04-21T23:08:46.524Z,8.92
2023-04-21T23:13:48.412Z,8.93
2023-04-21T23:18:49.920Z,8.93
2023-04-21T23:23:51.572Z,8.90
2023-04-21T23:28:53.117Z,8.85
2023-04-21T23:33:54.626Z,8.80
2023-04-21T23:38:56.194Z,8.81
2023-04-21T23:43:57.734Z,8.73
2023-04-21T23:48:59.295Z,8.66
2023-04-21T23:54:01.694Z,8.60
2023-04-21T23:59:03.281Z,8.60
